Time,TemperatureF,DewpointF,PressureIn,WindDirection,WindDirectionDegrees,WindSpeedMPH,WindSpeedGustMPH,Humidity,HourlyPrecipIn,Conditions,Clouds,dailyrainin,SoftwareType,DateUTC
2013-03-02 00:02:00,13.3,5.9,30.24,North,0,0.0,0.0,72,0.00,CLR,OVC,0.00,WeatherDisplay:10.37,2013-03-02 06:02:00,
2013-03-02 00:07:00,13.1,5.8,30.23,North,0,0.0,0.0,72,0.00,CLR,OVC,0.00,WeatherDisplay:10.37,2013-03-02 06:07:00,
2013-03-02 00:12:00,12.9,5.6,30.23,North,0,0.0,0.0,72,0.00,CLR,OVC,0.00,WeatherDisplay:10.37,2013-03-02 06:12:00,
2013-03-02 00:17:00,12.9,5.6,30.23,North,0,0.0,0.0,72,0.00,CLR,OVC,0.00,WeatherDisplay:10.37,2013-03-02 06:17:00,
2013-03-02 00:22:00,12.9,5.6,30.23,North,0,0.0,0.0,72,0.00,CLR,OVC,0.00,WeatherDisplay:10.37,2013-03-02 06:22:00,
2013-03-02 00:27:00,12.9,5.6,30.23,North,0,0.0,0.0,72,0.00,CLR,OVC,0.00,WeatherDisplay:10.37,2013-03-02 06:27:00,
2013-03-02 00:32:00,12.9,5.6,30.23,North,0,0.0,0.0,72,0.00,CLR,OVC,0.00,WeatherDisplay:10.37,2013-03-02 06:32:00,
2013-03-02 00:37:00,12.6,5.5,30.23,North,0,0.0,0.0,73,0.00,CLR,OVC,0.00,WeatherDisplay:10.37,2013-03-02 06:37:00,
2013-03-02 00:42:00,12.2,5.5,30.22,North,0,0.0,0.0,74,0.00,CLR,OVC,0.00,WeatherDisplay:10.37,2013-03-02 06:42:00,
2013-03-02 00:47:00,12.0,5.0,30.23,North,0,0.0,0.0,73,0.00,CLR,OVC,0.00,WeatherDisplay:10.37,2013-03-02 06:47:00,
2013-03-02 00:52:00,11.8,5.1,30.23,North,0,0.0,0.0,74,0.00,CLR,OVC,0.00,WeatherDisplay:10.37,2013-03-02 06:52:00,
2013-03-02 00:57:00,11.7,5.0,30.23,North,0,0.0,0.0,74,0.00,CLR,OVC,0.00,WeatherDisplay:10.37,2013-03-02 06:57:00,
2013-03-02 01:02:00,11.7,4.7,30.23,North,0,0.0,0.0,73,0.00,CLR,OVC,0.00,WeatherDisplay:10.37,2013-03-02 07:02:00,
2013-03-02 01:07:00,11.5,4.5,30.23,North,0,0.0,0.0,73,0.00,CLR,OVC,0.00,WeatherDisplay:10.37,2013-03-02 07:07:00,
2013-03-02 01:12:00,11.3,4.6,30.23,North,0,0.0,0.0,74,0.00,CLR,OVC,0.00,WeatherDisplay:10.37,2013-03-02 07:12:00,
2013-03-02 01:17:00,11.3,4.3,30.23,North,0,0.0,0.0,73,0.00,CLR,OVC,0.00,WeatherDisplay:10.37,2013-03-02 07:17:00,
2013-03-02 01:22:00,11.5,4.5,30.23,North,0,0.0,0.0,73,0.00,CLR,OVC,0.00,WeatherDisplay:10.37,2013-03-02 07:22:00,
2013-03-02 01:27:00,11.3,4.3,30.23,North,0,0.0,0.0,73,0.00,CLR,OVC,0.00,WeatherDisplay:10.37,2013-03-02 07:27:00,
2013-03-02 01:32:00,10.9,4.0,30.23,North,0,0.0,0.0,73,0.00,CLR,OVC,0.00,WeatherDisplay:10.37,2013-03-02 07:32:00,
2013-03-02 01:37:00,10.8,3.8,30.23,North,0,0.0,0.0,73,0.00,CLR,OVC,0.00,WeatherDisplay:10.37,2013-03-02 07:37:00,
2013-03-02 01:42:00,10.9,4.3,30.23,North,0,0.0,0.0,74,0.00,CLR,OVC,0.00,WeatherDisplay:10.37,2013-03-02 07:42:00,
2013-03-02 01:47:00,10.8,4.1,30.23,North,0,0.0,0.0,74,0.00,CLR,OVC,0.00,WeatherDisplay:10.37,2013-03-02 07:47:00,
2013-03-02 01:52:00,10.8,4.1,30.23,North,0,0.0,0.0,74,0.00,CLR,OVC,0.00,WeatherDisplay:10.37,2013-03-02 07:52:00,
2013-03-02 01:57:00,10.9,4.0,30.23,North,0,0.0,0.0,73,0.00,CLR,OVC,0.00,WeatherDisplay:10.37,2013-03-02 07:57:00,
2013-03-02 02:02:00,11.1,3.5,30.23,North,0,0.0,0.0,71,0.00,CLR,OVC,0.00,WeatherDisplay:10.37,2013-03-02 08:02:00,
2013-03-02 02:07:00,11.5,3.9,30.22,North,0,0.0,0.0,71,0.00,CLR,OVC,0.00,WeatherDisplay:10.37,2013-03-02 08:07:00,
2013-03-02 02:12:00,11.1,4.2,30.22,North,0,0.0,0.0,73,0.00,CLR,OVC,0.00,WeatherDisplay:10.37,2013-03-02 08:12:00,
2013-03-02 02:17:00,11.1,4.2,30.22,North,0,0.0,0.0,73,0.00,CLR,OVC,0.00,WeatherDisplay:10.37,2013-03-02 08:17:00,
2013-03-02 02:22:00,10.9,4.0,30.22,North,0,0.0,0.0,73,0.00,CLR,OVC,0.00,WeatherDisplay:10.37,2013-03-02 08:22:00,
2013-03-02 02:27:00,11.1,3.9,30.22,North,0,0.0,0.0,72,0.00,CLR,OVC,0.00,WeatherDisplay:10.37,2013-03-02 08:27:00,
2013-03-02 02:32:00,11.3,3.7,30.22,North,0,0.0,0.0,71,0.00,CLR,OVC,0.00,WeatherDisplay:10.37,2013-03-02 08:32:00,
2013-03-02 02:37:00,11.5,3.9,30.22,North,0,0.0,0.0,71,0.00,CLR,OVC,0.00,WeatherDisplay:10.37,2013-03-02 08:37:00,
2013-03-02 02:42:00,11.1,4.2,30.22,North,0,0.0,0.0,73,0.00,CLR,OVC,0.00,WeatherDisplay:10.37,2013-03-02 08:42:00,
2013-03-02 02:47:00,10.6,3.6,30.22,North,0,0.0,0.0,73,0.00,CLR,OVC,0.00,WeatherDisplay:10.37,2013-03-02 08:47:00,
2013-03-02 02:52:00,10.4,3.8,30.22,North,0,0.0,0.0,74,0.00,CLR,OVC,0.00,WeatherDisplay:10.37,2013-03-02 08:52:00,
2013-03-02 02:57:00,10.4,3.5,30.22,North,0,0.0,0.0,73,0.00,CLR,OVC,0.00,WeatherDisplay:10.37,2013-03-02 08:57:00,
2013-03-02 03:02:00,10.6,3.0,30.22,North,0,0.0,0.0,71,0.00,CLR,OVC,0.00,WeatherDisplay:10.37,2013-03-02 09:02:00,
2013-03-02 03:07:00,11.1,2.9,30.21,North,0,0.0,0.0,69,0.00,CLR,OVC,0.00,WeatherDisplay:10.37,2013-03-02 09:07:00,
2013-03-02 03:12:00,11.8,3.3,30.21,North,0,0.0,0.0,68,0.00,CLR,OVC,0.00,WeatherDisplay:10.37,2013-03-02 09:12:00,
2013-03-02 03:17:00,11.7,4.1,30.21,North,0,0.0,0.0,71,0.00,CLR,OVC,0.00,WeatherDisplay:10.37,2013-03-02 09:17:00,
2013-03-02 03:22:00,11.1,3.9,30.21,North,0,0.0,0.0,72,0.00,CLR,OVC,0.00,WeatherDisplay:10.37,2013-03-02 09:22:00,
2013-03-02 03:27:00,11.3,3.7,30.21,North,0,0.0,0.0,71,0.00,CLR,OVC,0.00,WeatherDisplay:10.37,2013-03-02 09:27:00,
2013-03-02 03:32:00,11.5,3.9,30.21,North,0,0.0,0.0,71,0.00,CLR,OVC,0.00,WeatherDisplay:10.37,2013-03-02 09:32:00,
2013-03-02 03:37:00,11.7,3.8,30.21,North,0,0.0,0.0,70,0.00,CLR,OVC,0.00,WeatherDisplay:10.37,2013-03-02 09:37:00,
2013-03-02 03:42:00,11.8,3.9,30.22,North,0,0.0,0.0,70,0.00,CLR,OVC,0.00,WeatherDisplay:10.37,2013-03-02 09:42:00,
2013-03-02 03:47:00,12.0,4.4,30.22,North,0,0.0,0.0,71,0.00,CLR,OVC,0.00,WeatherDisplay:10.37,2013-03-02 09:47:00,
2013-03-02 03:52:00,11.8,4.2,30.22,North,0,0.0,0.0,71,0.00,CLR,OVC,0.00,WeatherDisplay:10.37,2013-03-02 09:52:00,
2013-03-02 03:57:00,11.7,5.0,30.22,North,0,0.0,0.0,74,0.00,CLR,OVC,0.00,WeatherDisplay:10.37,2013-03-02 09:57:00,
2013-03-02 04:03:00,10.4,4.0,30.22,North,0,0.0,0.0,75,0.00,CLR,OVC,0.00,WeatherDisplay:10.37,2013-03-02 10:03:00,
2013-03-02 04:08:00,9.7,3.3,30.22,North,0,0.0,0.0,75,0.00,CLR,OVC,0.00,WeatherDisplay:10.37,2013-03-02 10:08:00,
2013-03-02 04:13:00,9.1,2.8,30.22,North,0,0.0,0.0,75,0.00,CLR,OVC,0.00,WeatherDisplay:10.37,2013-03-02 10:13:00,
2013-03-02 04:18:00,9.7,2.2,30.22,North,0,0.0,0.0,71,0.00,CLR,OVC,0.00,WeatherDisplay:10.37,2013-03-02 10:18:00,
2013-03-02 04:23:00,10.8,2.3,30.22,North,0,0.0,0.0,68,0.00,CLR,OVC,0.00,WeatherDisplay:10.37,2013-03-02 10:23:00,
2013-03-02 04:28:00,10.9,3.4,30.22,North,0,0.0,0.0,71,0.00,CLR,OVC,0.00,WeatherDisplay:10.37,2013-03-02 10:28:00,
2013-03-02 04:33:00,10.4,3.5,30.22,North,0,0.0,0.0,73,0.00,CLR,OVC,0.00,WeatherDisplay:10.37,2013-03-02 10:33:00,
2013-03-02 04:38:00,10.2,3.3,30.22,North,0,0.0,0.0,73,0.00,CLR,OVC,0.00,WeatherDisplay:10.37,2013-03-02 10:38:00,
2013-03-02 04:43:00,9.9,2.6,30.22,North,0,0.0,0.0,72,0.00,CLR,OVC,0.00,WeatherDisplay:10.37,2013-03-02 10:43:00,
2013-03-02 04:48:00,9.9,2.3,30.22,North,0,0.0,0.0,71,0.00,CLR,OVC,0.00,WeatherDisplay:10.37,2013-03-02 10:48:00,
2013-03-02 04:53:00,10.0,2.2,30.22,North,0,0.0,0.0,70,0.00,CLR,OVC,0.00,WeatherDisplay:10.37,2013-03-02 10:53:00,
2013-03-02 04:58:00,10.0,2.5,30.22,North,0,0.0,0.0,71,0.00,CLR,OVC,0.00,WeatherDisplay:10.37,2013-03-02 10:58:00,
2013-03-02 05:03:00,9.9,2.3,30.23,North,0,0.0,0.0,71,0.00,CLR,OVC,0.00,WeatherDisplay:10.37,2013-03-02 11:03:00,
2013-03-02 05:08:00,9.9,2.3,30.22,North,0,0.0,0.0,71,0.00,CLR,OVC,0.00,WeatherDisplay:10.37,2013-03-02 11:08:00,
2013-03-02 05:13:00,9.9,2.3,30.22,North,0,0.0,0.0,71,0.00,CLR,OVC,0.00,WeatherDisplay:10.37,2013-03-02 11:13:00,
2013-03-02 05:18:00,10.0,2.2,30.22,North,0,0.0,0.0,70,0.00,CLR,OVC,0.00,WeatherDisplay:10.37,2013-03-02 11:18:00,
2013-03-02 05:23:00,10.0,2.2,30.22,North,0,0.0,0.0,70,0.00,CLR,OVC,0.00,WeatherDisplay:10.37,2013-03-02 11:23:00,
2013-03-02 05:28:00,10.2,2.4,30.23,North,0,0.0,0.0,70,0.00,CLR,OVC,0.00,WeatherDisplay:10.37,2013-03-02 11:28:00,
2013-03-02 05:33:00,10.2,2.7,30.23,North,0,0.0,0.0,71,0.00,CLR,OVC,0.00,WeatherDisplay:10.37,2013-03-02 11:33:00,
2013-03-02 05:38:00,10.2,2.4,30.23,North,0,0.0,0.0,70,0.00,CLR,OVC,0.00,WeatherDisplay:10.37,2013-03-02 11:38:00,
2013-03-02 05:43:00,10.0,2.5,30.23,North,0,0.0,0.0,71,0.00,CLR,OVC,0.00,WeatherDisplay:10.37,2013-03-02 11:43:00,
2013-03-02 05:48:00,9.9,2.6,30.23,North,0,0.0,0.0,72,0.00,CLR,OVC,0.00,WeatherDisplay:10.37,2013-03-02 11:48:00,
2013-03-02 05:53:00,9.7,2.2,30.23,North,0,0.0,0.0,71,0.00,CLR,OVC,0.00,WeatherDisplay:10.37,2013-03-02 11:53:00,
2013-03-02 05:58:00,9.7,1.9,30.23,North,0,0.0,0.0,70,0.00,CLR,OVC,0.00,WeatherDisplay:10.37,2013-03-02 11:58:00,
2013-03-02 06:03:00,9.7,2.2,30.23,North,0,0.0,0.0,71,0.00,CLR,OVC,0.00,WeatherDisplay:10.37,2013-03-02 12:03:00,
2013-03-02 06:08:00,9.5,2.0,30.23,North,0,0.0,0.0,71,0.00,CLR,OVC,0.00,WeatherDisplay:10.37,2013-03-02 12:08:00,
2013-03-02 06:13:00,9.5,2.0,30.23,North,0,0.0,0.0,71,0.00,CLR,OVC,0.00,WeatherDisplay:10.37,2013-03-02 12:13:00,
2013-03-02 06:18:00,9.5,2.0,30.23,North,0,0.0,0.0,71,0.00,CLR,OVC,0.00,WeatherDisplay:10.37,2013-03-02 12:18:00,
2013-03-02 06:23:00,9.3,1.5,30.23,North,0,0.0,0.0,70,0.00,CLR,OVC,0.00,WeatherDisplay:10.37,2013-03-02 12:23:00,
2013-03-02 06:28:00,9.3,1.5,30.23,North,0,0.0,0.0,70,0.00,CLR,OVC,0.00,WeatherDisplay:10.37,2013-03-02 12:28:00,
2013-03-02 06:33:00,9.1,1.6,30.23,North,0,0.0,0.0,71,0.00,CLR,OVC,0.00,WeatherDisplay:10.37,2013-03-02 12:33:00,
2013-03-02 06:38:00,9.0,1.5,30.23,North,0,0.0,0.0,71,0.00,CLR,OVC,0.00,WeatherDisplay:10.37,2013-03-02 12:38:00,
2013-03-02 06:43:00,9.0,1.2,30.23,North,0,0.0,0.0,70,0.00,CLR,OVC,0.00,WeatherDisplay:10.37,2013-03-02 12:43:00,
2013-03-02 06:49:00,9.1,1.3,30.23,North,0,0.0,0.0,70,0.00,CLR,OVC,0.00,WeatherDisplay:10.37,2013-03-02 12:49:00,
2013-03-02 06:54:00,9.0,1.2,30.23,North,0,0.0,0.0,70,0.00,CLR,OVC,0.00,WeatherDisplay:10.37,2013-03-02 12:54:00,
2013-03-02 06:59:00,8.6,1.4,30.23,North,0,0.0,0.0,72,0.00,CLR,OVC,0.00,WeatherDisplay:10.37,2013-03-02 12:59:00,
2013-03-02 07:04:00,8.4,1.2,30.23,North,0,0.0,0.0,72,0.00,CLR,OVC,0.00,WeatherDisplay:10.37,2013-03-02 13:04:00,
2013-03-02 07:09:00,8.6,0.8,30.23,North,0,0.0,0.0,70,0.00,CLR,OVC,0.00,WeatherDisplay:10.37,2013-03-02 13:09:00,
2013-03-02 07:14:00,8.8,1.0,30.23,North,0,0.0,0.0,70,0.00,CLR,OVC,0.00,WeatherDisplay:10.37,2013-03-02 13:14:00,
2013-03-02 07:19:00,8.4,0.9,30.23,North,0,0.0,0.0,71,0.00,CLR,OVC,0.00,WeatherDisplay:10.37,2013-03-02 13:19:00,
2013-03-02 07:24:00,8.6,0.8,30.23,North,0,0.0,0.0,70,0.00,CLR,OVC,0.00,WeatherDisplay:10.37,2013-03-02 13:24:00,
2013-03-02 07:29:00,9.1,0.7,30.23,North,0,0.0,0.0,68,0.00,CLR,OVC,0.00,WeatherDisplay:10.37,2013-03-02 13:29:00,
2013-03-02 07:34:00,9.5,1.1,30.23,North,0,0.0,0.0,68,0.00,CLR,OVC,0.00,WeatherDisplay:10.37,2013-03-02 13:34:00,
2013-03-02 07:39:00,9.7,1.9,30.23,North,0,0.0,0.0,70,0.00,CLR,OVC,0.00,WeatherDisplay:10.37,2013-03-02 13:39:00,
2013-03-02 07:44:00,9.5,2.0,30.24,North,0,0.0,0.0,71,0.00,CLR,OVC,0.00,WeatherDisplay:10.37,2013-03-02 13:44:00,
2013-03-02 07:49:00,9.5,2.3,30.24,North,0,0.0,0.0,72,0.00,CLR,OVC,0.00,WeatherDisplay:10.37,2013-03-02 13:49:00,
2013-03-02 07:54:00,10.0,2.2,30.24,North,0,0.0,0.0,70,0.00,CLR,OVC,0.00,WeatherDisplay:10.37,2013-03-02 13:54:00,
2013-03-02 07:59:00,10.6,2.4,30.24,North,0,0.0,0.0,69,0.00,CLR,OVC,0.00,WeatherDisplay:10.37,2013-03-02 13:59:00,
2013-03-02 08:04:00,10.6,3.6,30.24,North,0,0.0,0.0,73,0.00,CLR,OVC,0.00,WeatherDisplay:10.37,2013-03-02 14:04:00,
2013-03-02 08:09:00,10.6,3.6,30.24,North,0,0.0,0.0,73,0.00,CLR,OVC,0.00,WeatherDisplay:10.37,2013-03-02 14:09:00,
2013-03-02 08:14:00,11.1,3.5,30.24,North,0,0.0,0.0,71,0.00,CLR,OVC,0.00,WeatherDisplay:10.37,2013-03-02 14:14:00,
2013-03-02 08:19:00,11.5,4.5,30.24,North,0,0.0,0.0,73,0.00,CLR,OVC,0.00,WeatherDisplay:10.37,2013-03-02 14:19:00,
2013-03-02 08:24:00,11.7,4.7,30.24,North,0,0.0,0.0,73,0.00,CLR,OVC,0.00,WeatherDisplay:10.37,2013-03-02 14:24:00,
2013-03-02 08:29:00,11.8,5.1,30.25,North,0,0.0,0.0,74,0.00,CLR,OVC,0.00,WeatherDisplay:10.37,2013-03-02 14:29:00,
2013-03-02 08:34:00,12.6,5.5,30.25,North,0,0.0,0.0,73,0.00,CLR,OVC,0.00,WeatherDisplay:10.37,2013-03-02 14:34:00,
2013-03-02 08:39:00,12.9,5.9,30.25,North,0,0.0,0.0,73,0.00,CLR,OVC,0.00,WeatherDisplay:10.37,2013-03-02 14:39:00,
2013-03-02 08:44:00,13.3,6.5,30.24,North,0,0.0,0.0,74,0.00,CLR,OVC,0.00,WeatherDisplay:10.37,2013-03-02 14:44:00,
2013-03-02 08:49:00,13.3,6.8,30.24,North,0,0.0,0.0,75,0.00,CLR,OVC,0.00,WeatherDisplay:10.37,2013-03-02 14:49:00,
2013-03-02 08:54:00,13.5,7.0,30.24,North,0,0.0,0.0,75,0.00,CLR,OVC,0.00,WeatherDisplay:10.37,2013-03-02 14:54:00,
2013-03-02 08:59:00,13.6,6.9,30.24,North,0,0.0,0.0,74,0.00,CLR,OVC,0.00,WeatherDisplay:10.37,2013-03-02 14:59:00,
2013-03-02 09:04:00,13.6,6.9,30.24,North,0,0.0,0.0,74,0.00,CLR,OVC,0.00,WeatherDisplay:10.37,2013-03-02 15:04:00,
2013-03-02 09:09:00,14.0,7.2,30.25,North,0,0.0,0.0,74,0.00,CLR,OVC,0.00,WeatherDisplay:10.37,2013-03-02 15:09:00,
2013-03-02 09:14:00,14.4,7.6,30.25,North,0,0.0,0.0,74,0.00,CLR,OVC,0.00,WeatherDisplay:10.37,2013-03-02 15:14:00,
2013-03-02 09:19:00,14.7,7.9,30.25,North,0,0.0,0.0,74,0.00,CLR,OVC,0.00,WeatherDisplay:10.37,2013-03-02 15:19:00,
2013-03-02 09:24:00,14.9,8.1,30.25,North,0,0.0,0.0,74,0.00,CLR,OVC,0.00,WeatherDisplay:10.37,2013-03-02 15:24:00,
2013-03-02 09:29:00,15.3,8.5,30.25,North,0,0.0,0.0,74,0.00,CLR,OVC,0.00,WeatherDisplay:10.37,2013-03-02 15:29:00,
2013-03-02 09:34:00,15.4,8.6,30.25,North,0,0.0,0.0,74,0.00,CLR,OVC,0.00,WeatherDisplay:10.37,2013-03-02 15:34:00,
2013-03-02 09:39:00,16.0,9.2,30.25,North,0,0.0,0.0,74,0.00,CLR,OVC,0.00,WeatherDisplay:10.37,2013-03-02 15:39:00,
2013-03-02 09:44:00,16.7,9.8,30.25,North,0,0.0,0.0,74,0.00,CLR,OVC,0.00,WeatherDisplay:10.37,2013-03-02 15:44:00,
2013-03-02 09:49:00,16.9,10.3,30.24,North,0,0.0,0.0,75,0.00,CLR,OVC,0.00,WeatherDisplay:10.37,2013-03-02 15:49:00,
2013-03-02 09:54:00,16.9,10.3,30.24,North,0,0.0,0.0,75,0.00,CLR,OVC,0.00,WeatherDisplay:10.37,2013-03-02 15:54:00,
2013-03-02 09:59:00,17.2,10.4,30.24,North,0,0.0,0.0,74,0.00,CLR,OVC,0.00,WeatherDisplay:10.37,2013-03-02 15:59:00,
2013-03-02 10:04:00,17.4,10.8,30.24,North,0,0.0,0.0,75,0.00,CLR,OVC,0.00,WeatherDisplay:10.37,2013-03-02 16:04:00,
2013-03-02 10:09:00,17.6,11.0,30.25,North,0,0.0,0.0,75,0.00,CLR,OVC,0.00,WeatherDisplay:10.37,2013-03-02 16:09:00,
2013-03-02 10:14:00,17.8,11.2,30.24,North,0,0.0,0.0,75,0.00,CLR,OVC,0.00,WeatherDisplay:10.37,2013-03-02 16:14:00,
2013-03-02 10:19:00,18.1,11.5,30.24,North,0,0.0,0.0,75,0.00,CLR,OVC,0.00,WeatherDisplay:10.37,2013-03-02 16:19:00,
2013-03-02 10:24:00,18.5,11.9,30.24,North,0,0.0,0.0,75,0.00,CLR,OVC,0.00,WeatherDisplay:10.37,2013-03-02 16:24:00,
2013-03-02 10:29:00,18.7,12.1,30.24,North,0,0.0,0.0,75,0.00,CLR,OVC,0.00,WeatherDisplay:10.37,2013-03-02 16:29:00,
2013-03-02 10:34:00,19.4,12.8,30.24,North,0,0.0,0.0,75,0.00,CLR,OVC,0.00,WeatherDisplay:10.37,2013-03-02 16:34:00,
2013-03-02 10:39:00,19.9,13.0,30.24,North,0,0.0,0.0,74,0.00,CLR,OVC,0.00,WeatherDisplay:10.37,2013-03-02 16:39:00,
2013-03-02 10:44:00,20.5,13.5,30.24,North,0,0.0,0.0,74,0.00,CLR,OVC,0.00,WeatherDisplay:10.37,2013-03-02 16:44:00,
2013-03-02 10:49:00,21.0,14.0,30.24,North,0,0.0,0.0,74,0.00,CLR,OVC,0.00,WeatherDisplay:10.37,2013-03-02 16:49:00,
2013-03-02 10:54:00,21.2,14.2,30.25,North,0,0.0,0.0,74,0.00,CLR,OVC,0.00,WeatherDisplay:10.37,2013-03-02 16:54:00,
2013-03-02 10:59:00,21.6,14.9,30.24,North,0,0.0,0.0,75,0.00,CLR,OVC,0.00,WeatherDisplay:10.37,2013-03-02 16:59:00,
2013-03-02 11:04:00,21.9,15.2,30.24,North,0,0.0,0.0,75,0.00,CLR,OVC,0.00,WeatherDisplay:10.37,2013-03-02 17:04:00,
2013-03-02 11:09:00,21.9,15.2,30.24,North,0,0.0,0.0,75,0.00,CLR,OVC,0.00,WeatherDisplay:10.37,2013-03-02 17:09:00,
2013-03-02 11:14:00,21.6,14.9,30.24,North,0,0.0,0.0,75,0.00,CLR,OVC,0.00,WeatherDisplay:10.37,2013-03-02 17:14:00,
2013-03-02 11:19:00,21.7,15.0,30.24,North,0,0.0,0.0,75,0.00,CLR,OVC,0.00,WeatherDisplay:10.37,2013-03-02 17:19:00,
2013-03-02 11:24:00,22.3,15.6,30.24,North,0,0.0,0.0,75,0.00,CLR,OVC,0.00,WeatherDisplay:10.37,2013-03-02 17:24:00,
2013-03-02 11:29:00,23.0,15.9,30.24,North,0,0.0,0.0,74,0.00,CLR,OVC,0.00,WeatherDisplay:10.37,2013-03-02 17:29:00,
2013-03-02 11:34:00,23.4,16.3,30.24,North,0,0.0,0.0,74,0.00,CLR,OVC,0.00,WeatherDisplay:10.37,2013-03-02 17:34:00,
2013-03-02 11:39:00,24.1,17.0,30.23,North,0,0.0,0.0,74,0.00,CLR,OVC,0.00,WeatherDisplay:10.37,2013-03-02 17:39:00,
2013-03-02 11:44:00,24.3,16.8,30.23,North,0,0.0,0.0,73,0.00,CLR,OVC,0.00,WeatherDisplay:10.37,2013-03-02 17:44:00,
2013-03-02 11:49:00,24.1,16.7,30.23,North,0,0.0,0.0,73,0.00,CLR,OVC,0.00,WeatherDisplay:10.37,2013-03-02 17:49:00,
2013-03-02 11:54:00,24.3,16.8,30.23,North,0,0.0,0.0,73,0.00,CLR,OVC,0.00,WeatherDisplay:10.37,2013-03-02 17:54:00,
2013-03-02 11:59:00,23.7,16.0,30.22,North,0,0.0,0.0,72,0.00,CLR,OVC,0.00,WeatherDisplay:10.37,2013-03-02 17:59:00,
2013-03-02 12:04:00,23.5,15.8,30.22,North,0,0.0,0.0,72,0.00,CLR,OVC,0.00,WeatherDisplay:10.37,2013-03-02 18:04:00,
2013-03-02 12:09:00,23.7,16.0,30.22,North,0,0.0,0.0,72,0.00,CLR,OVC,0.00,WeatherDisplay:10.37,2013-03-02 18:09:00,
2013-03-02 12:14:00,24.1,16.4,30.22,North,0,0.0,0.0,72,0.00,CLR,OVC,0.00,WeatherDisplay:10.37,2013-03-02 18:14:00,
2013-03-02 12:19:00,24.3,16.5,30.22,North,0,0.0,0.0,72,0.00,CLR,OVC,0.00,WeatherDisplay:10.37,2013-03-02 18:19:00,
2013-03-02 12:24:00,24.3,16.2,30.21,North,0,0.0,0.0,71,0.00,CLR,OVC,0.00,WeatherDisplay:10.37,2013-03-02 18:24:00,
2013-03-02 12:29:00,24.6,16.9,30.21,North,0,0.0,0.0,72,0.00,CLR,OVC,0.00,WeatherDisplay:10.37,2013-03-02 18:29:00,
2013-03-02 12:35:00,24.8,16.7,30.21,North,0,0.0,0.0,71,0.00,CLR,OVC,0.00,WeatherDisplay:10.37,2013-03-02 18:35:00,
2013-03-02 12:40:00,24.6,16.6,30.21,North,0,0.0,0.0,71,0.00,CLR,OVC,0.00,WeatherDisplay:10.37,2013-03-02 18:40:00,
2013-03-02 12:45:00,24.4,16.1,30.21,North,0,0.0,0.0,70,0.00,CLR,OVC,0.00,WeatherDisplay:10.37,2013-03-02 18:45:00,
2013-03-02 12:50:00,24.3,15.9,30.21,North,0,0.0,0.0,70,0.00,CLR,OVC,0.00,WeatherDisplay:10.37,2013-03-02 18:50:00,
2013-03-02 12:55:00,24.3,16.2,30.21,North,0,0.0,0.0,71,0.00,CLR,OVC,0.00,WeatherDisplay:10.37,2013-03-02 18:55:00,
2013-03-02 13:00:00,24.4,16.1,30.21,North,0,0.0,0.0,70,0.00,CLR,OVC,0.00,WeatherDisplay:10.37,2013-03-02 19:00:00,
2013-03-02 13:05:00,24.6,15.9,30.21,North,0,0.0,0.0,69,0.00,CLR,OVC,0.00,WeatherDisplay:10.37,2013-03-02 19:05:00,
2013-03-02 13:10:00,25.0,16.9,30.20,North,0,0.0,0.0,71,0.00,CLR,OVC,0.00,WeatherDisplay:10.37,2013-03-02 19:10:00,
2013-03-02 13:15:00,25.2,17.1,30.20,North,0,0.0,0.0,71,0.00,CLR,OVC,0.00,WeatherDisplay:10.37,2013-03-02 19:15:00,
2013-03-02 13:20:00,25.2,17.1,30.20,North,0,0.0,0.0,71,0.00,CLR,OVC,0.00,WeatherDisplay:10.37,2013-03-02 19:20:00,
2013-03-02 13:25:00,25.3,16.9,30.20,North,0,0.0,0.0,70,0.00,CLR,OVC,0.00,WeatherDisplay:10.37,2013-03-02 19:25:00,
2013-03-02 13:30:00,25.2,16.7,30.20,North,0,0.0,0.0,70,0.00,CLR,OVC,0.00,WeatherDisplay:10.37,2013-03-02 19:30:00,
2013-03-02 13:35:00,25.2,16.7,30.19,North,0,0.0,0.0,70,0.00,CLR,OVC,0.00,WeatherDisplay:10.37,2013-03-02 19:35:00,
2013-03-02 13:40:00,25.5,17.4,30.19,North,0,0.0,0.0,71,0.00,CLR,OVC,0.00,WeatherDisplay:10.37,2013-03-02 19:40:00,
2013-03-02 13:45:00,25.7,17.3,30.19,North,0,0.0,0.0,70,0.00,CLR,OVC,0.00,WeatherDisplay:10.37,2013-03-02 19:45:00,
2013-03-02 13:50:00,26.2,18.1,30.19,North,0,0.0,0.0,71,0.00,CLR,OVC,0.00,WeatherDisplay:10.37,2013-03-02 19:50:00,
2013-03-02 13:55:00,25.9,17.4,30.19,North,0,0.0,0.0,70,0.00,CLR,OVC,0.00,WeatherDisplay:10.37,2013-03-02 19:55:00,
2013-03-02 14:00:00,25.9,17.4,30.19,North,0,0.0,0.0,70,0.00,CLR,OVC,0.00,WeatherDisplay:10.37,2013-03-02 20:00:00,
2013-03-02 14:05:00,25.9,17.4,30.19,North,0,0.0,0.0,70,0.00,CLR,OVC,0.00,WeatherDisplay:10.37,2013-03-02 20:05:00,
2013-03-02 14:10:00,26.1,17.6,30.18,North,0,0.0,0.0,70,0.00,CLR,OVC,0.00,WeatherDisplay:10.37,2013-03-02 20:10:00,
2013-03-02 14:15:00,26.1,17.6,30.19,North,0,0.0,0.0,70,0.00,CLR,OVC,0.00,WeatherDisplay:10.37,2013-03-02 20:15:00,
2013-03-02 14:20:00,25.9,17.4,30.19,North,0,0.0,0.0,70,0.00,CLR,OVC,0.00,WeatherDisplay:10.37,2013-03-02 20:20:00,
2013-03-02 14:25:00,25.7,17.3,30.19,North,0,0.0,0.0,70,0.00,CLR,OVC,0.00,WeatherDisplay:10.37,2013-03-02 20:25:00,
2013-03-02 14:30:00,25.9,17.4,30.19,North,0,0.0,0.0,70,0.00,CLR,OVC,0.00,WeatherDisplay:10.37,2013-03-02 20:30:00,
2013-03-02 14:35:00,25.9,17.4,30.18,North,0,0.0,0.0,70,0.00,CLR,OVC,0.00,WeatherDisplay:10.37,2013-03-02 20:35:00,
2013-03-02 14:40:00,26.2,17.8,30.18,North,0,0.0,0.0,70,0.00,CLR,OVC,0.00,WeatherDisplay:10.37,2013-03-02 20:40:00,
2013-03-02 14:45:00,26.2,17.8,30.17,North,0,0.0,0.0,70,0.00,CLR,OVC,0.00,WeatherDisplay:10.37,2013-03-02 20:45:00,
2013-03-02 14:50:00,26.4,18.0,30.18,North,0,0.0,0.0,70,0.00,CLR,OVC,0.00,WeatherDisplay:10.37,2013-03-02 20:50:00,
2013-03-02 14:55:00,26.6,18.1,30.18,North,0,0.0,0.0,70,0.00,CLR,OVC,0.00,WeatherDisplay:10.37,2013-03-02 20:55:00,
2013-03-02 15:00:00,26.4,18.0,30.18,North,0,0.0,0.0,70,0.00,CLR,OVC,0.00,WeatherDisplay:10.37,2013-03-02 21:00:00,
2013-03-02 15:05:00,26.4,18.0,30.18,North,0,0.0,0.0,70,0.00,CLR,OVC,0.00,WeatherDisplay:10.37,2013-03-02 21:05:00,
2013-03-02 15:10:00,26.4,18.0,30.18,North,0,0.0,0.0,70,0.00,CLR,OVC,0.00,WeatherDisplay:10.37,2013-03-02 21:10:00,
2013-03-02 15:15:00,26.4,18.0,30.18,North,0,0.0,0.0,70,0.00,CLR,OVC,0.00,WeatherDisplay:10.37,2013-03-02 21:15:00,
2013-03-02 15:20:00,26.4,18.0,30.18,North,0,0.0,0.0,70,0.00,CLR,OVC,0.00,WeatherDisplay:10.37,2013-03-02 21:20:00,
2013-03-02 15:25:00,26.4,18.0,30.18,North,0,0.0,0.0,70,0.00,CLR,OVC,0.00,WeatherDisplay:10.37,2013-03-02 21:25:00,
2013-03-02 15:30:00,26.2,17.8,30.18,North,0,0.0,0.0,70,0.00,CLR,OVC,0.00,WeatherDisplay:10.37,2013-03-02 21:30:00,
2013-03-02 15:35:00,26.2,17.8,30.18,North,0,0.0,0.0,70,0.00,CLR,OVC,0.00,WeatherDisplay:10.37,2013-03-02 21:35:00,
2013-03-02 15:40:00,26.4,18.0,30.18,North,0,0.0,0.0,70,0.00,CLR,OVC,0.00,WeatherDisplay:10.37,2013-03-02 21:40:00,
2013-03-02 15:45:00,26.4,18.0,30.18,North,0,0.0,0.0,70,0.00,CLR,OVC,0.00,WeatherDisplay:10.37,2013-03-02 21:45:00,
2013-03-02 15:50:00,26.2,17.8,30.18,North,0,0.0,0.0,70,0.00,CLR,OVC,0.00,WeatherDisplay:10.37,2013-03-02 21:50:00,
2013-03-02 15:55:00,26.4,18.3,30.18,North,0,0.0,0.0,71,0.00,CLR,OVC,0.00,WeatherDisplay:10.37,2013-03-02 21:55:00,
2013-03-02 16:00:00,26.2,18.1,30.18,North,0,0.0,0.0,71,0.00,CLR,OVC,0.00,WeatherDisplay:10.37,2013-03-02 22:00:00,
2013-03-02 16:05:00,26.2,18.1,30.18,North,0,0.0,0.0,71,0.00,CLR,OVC,0.00,WeatherDisplay:10.37,2013-03-02 22:05:00,
2013-03-02 16:10:00,26.2,18.1,30.18,North,0,0.0,0.0,71,0.00,CLR,OVC,0.00,WeatherDisplay:10.37,2013-03-02 22:10:00,
2013-03-02 16:16:00,26.1,17.9,30.18,North,0,0.0,0.0,71,0.00,CLR,OVC,0.00,WeatherDisplay:10.37,2013-03-02 22:16:00,
2013-03-02 16:21:00,25.7,17.6,30.18,North,0,0.0,0.0,71,0.00,CLR,OVC,0.00,WeatherDisplay:10.37,2013-03-02 22:21:00,
2013-03-02 16:26:00,25.5,17.4,30.18,North,0,0.0,0.0,71,0.00,CLR,OVC,0.00,WeatherDisplay:10.37,2013-03-02 22:26:00,
2013-03-02 16:31:00,25.2,17.1,30.18,North,0,0.0,0.0,71,0.00,CLR,OVC,0.00,WeatherDisplay:10.37,2013-03-02 22:31:00,
2013-03-02 16:36:00,25.0,16.9,30.18,North,0,0.0,0.0,71,0.00,CLR,OVC,0.00,WeatherDisplay:10.37,2013-03-02 22:36:00,
2013-03-02 16:41:00,24.8,16.7,30.18,North,0,0.0,0.0,71,0.00,CLR,OVC,0.00,WeatherDisplay:10.37,2013-03-02 22:41:00,
2013-03-02 16:46:00,24.8,16.7,30.18,North,0,0.0,0.0,71,0.00,CLR,OVC,0.00,WeatherDisplay:10.37,2013-03-02 22:46:00,
2013-03-02 16:51:00,24.6,16.6,30.17,North,0,0.0,0.0,71,0.00,CLR,OVC,0.00,WeatherDisplay:10.37,2013-03-02 22:51:00,
2013-03-02 16:56:00,24.4,16.4,30.18,North,0,0.0,0.0,71,0.00,CLR,OVC,0.00,WeatherDisplay:10.37,2013-03-02 22:56:00,
2013-03-02 17:01:00,24.1,16.0,30.17,North,0,0.0,0.0,71,0.00,CLR,OVC,0.00,WeatherDisplay:10.37,2013-03-02 23:01:00,
2013-03-02 17:06:00,23.9,15.9,30.18,North,0,0.0,0.0,71,0.00,CLR,OVC,0.00,WeatherDisplay:10.37,2013-03-02 23:06:00,
2013-03-02 17:11:00,23.7,16.0,30.18,North,0,0.0,0.0,72,0.00,CLR,OVC,0.00,WeatherDisplay:10.37,2013-03-02 23:11:00,
2013-03-02 17:16:00,23.7,16.0,30.18,North,0,0.0,0.0,72,0.00,CLR,OVC,0.00,WeatherDisplay:10.37,2013-03-02 23:16:00,
2013-03-02 17:21:00,23.7,16.0,30.17,North,0,0.0,0.0,72,0.00,CLR,OVC,0.00,WeatherDisplay:10.37,2013-03-02 23:21:00,
2013-03-02 17:26:00,23.5,15.8,30.17,North,0,0.0,0.0,72,0.00,CLR,OVC,0.00,WeatherDisplay:10.37,2013-03-02 23:26:00,
2013-03-02 17:31:00,23.0,15.3,30.17,North,0,0.0,0.0,72,0.00,CLR,OVC,0.00,WeatherDisplay:10.37,2013-03-02 23:31:00,
2013-03-02 17:36:00,22.3,14.6,30.17,North,0,0.0,0.0,72,0.00,CLR,OVC,0.00,WeatherDisplay:10.37,2013-03-02 23:36:00,
2013-03-02 17:41:00,21.9,14.3,30.17,North,0,0.0,0.0,72,0.00,CLR,OVC,0.00,WeatherDisplay:10.37,2013-03-02 23:41:00,
2013-03-02 17:46:00,21.6,14.2,30.17,North,0,0.0,0.0,73,0.00,CLR,OVC,0.00,WeatherDisplay:10.37,2013-03-02 23:46:00,
2013-03-02 17:51:00,21.2,14.2,30.17,North,0,0.0,0.0,74,0.00,CLR,OVC,0.00,WeatherDisplay:10.37,2013-03-02 23:51:00,
2013-03-02 17:56:00,21.2,14.2,30.17,North,0,0.0,0.0,74,0.00,CLR,OVC,0.00,WeatherDisplay:10.37,2013-03-02 23:56:00,
2013-03-02 18:01:00,20.8,13.9,30.17,North,0,0.0,0.0,74,0.00,CLR,OVC,0.00,WeatherDisplay:10.37,2013-03-03 00:01:00,
2013-03-02 18:06:00,20.1,13.2,30.17,North,0,0.0,0.0,74,0.00,CLR,OVC,0.00,WeatherDisplay:10.37,2013-03-03 00:06:00,
2013-03-02 18:11:00,19.8,13.1,30.17,North,0,0.0,0.0,75,0.00,CLR,OVC,0.00,WeatherDisplay:10.37,2013-03-03 00:11:00,
2013-03-02 18:16:00,19.6,12.6,30.17,North,0,0.0,0.0,74,0.00,CLR,OVC,0.00,WeatherDisplay:10.37,2013-03-03 00:16:00,
2013-03-02 18:21:00,19.2,12.3,30.17,North,0,0.0,0.0,74,0.00,CLR,OVC,0.00,WeatherDisplay:10.37,2013-03-03 00:21:00,
2013-03-02 18:26:00,19.2,12.3,30.17,North,0,0.0,0.0,74,0.00,CLR,OVC,0.00,WeatherDisplay:10.37,2013-03-03 00:26:00,
2013-03-02 18:31:00,19.2,12.3,30.17,North,0,0.0,0.0,74,0.00,CLR,OVC,0.00,WeatherDisplay:10.37,2013-03-03 00:31:00,
2013-03-02 18:36:00,19.4,12.8,30.17,North,0,0.0,0.0,75,0.00,CLR,OVC,0.00,WeatherDisplay:10.37,2013-03-03 00:36:00,
2013-03-02 18:41:00,19.6,12.9,30.17,North,0,0.0,0.0,75,0.00,CLR,OVC,0.00,WeatherDisplay:10.37,2013-03-03 00:41:00,
2013-03-02 18:46:00,19.6,12.9,30.17,North,0,0.0,0.0,75,0.00,CLR,OVC,0.00,WeatherDisplay:10.37,2013-03-03 00:46:00,
2013-03-02 18:51:00,19.2,12.6,30.17,North,0,0.0,0.0,75,0.00,CLR,OVC,0.00,WeatherDisplay:10.37,2013-03-03 00:51:00,
2013-03-02 18:56:00,18.3,11.4,30.17,North,0,0.0,0.0,74,0.00,CLR,OVC,0.00,WeatherDisplay:10.37,2013-03-03 00:56:00,
2013-03-02 19:01:00,18.1,11.2,30.17,North,0,0.0,0.0,74,0.00,CLR,OVC,0.00,WeatherDisplay:10.37,2013-03-03 01:01:00,
2013-03-02 19:06:00,18.0,11.1,30.16,North,0,0.0,0.0,74,0.00,CLR,OVC,0.00,WeatherDisplay:10.37,2013-03-03 01:06:00,
2013-03-02 19:11:00,18.0,11.4,30.16,North,0,0.0,0.0,75,0.00,CLR,OVC,0.00,WeatherDisplay:10.37,2013-03-03 01:11:00,
2013-03-02 19:16:00,18.0,11.4,30.16,North,0,0.0,0.0,75,0.00,CLR,OVC,0.00,WeatherDisplay:10.37,2013-03-03 01:16:00,
2013-03-02 19:21:00,18.0,11.4,30.16,North,0,0.0,0.0,75,0.00,CLR,OVC,0.00,WeatherDisplay:10.37,2013-03-03 01:21:00,
2013-03-02 19:26:00,18.0,11.4,30.16,North,0,0.0,0.0,75,0.00,CLR,OVC,0.00,WeatherDisplay:10.37,2013-03-03 01:26:00,
2013-03-02 19:31:00,18.0,11.4,30.16,North,0,0.0,0.0,75,0.00,CLR,OVC,0.00,WeatherDisplay:10.37,2013-03-03 01:31:00,
2013-03-02 19:36:00,18.1,11.5,30.16,North,0,0.0,0.0,75,0.00,CLR,OVC,0.00,WeatherDisplay:10.37,2013-03-03 01:36:00,
2013-03-02 19:41:00,17.8,11.2,30.16,North,0,0.0,0.0,75,0.00,CLR,OVC,0.00,WeatherDisplay:10.37,2013-03-03 01:41:00,
2013-03-02 19:46:00,16.9,10.0,30.16,North,0,0.0,0.0,74,0.00,CLR,OVC,0.00,WeatherDisplay:10.37,2013-03-03 01:46:00,
2013-03-02 19:51:00,16.9,10.3,30.17,North,0,0.0,0.0,75,0.00,CLR,OVC,0.00,WeatherDisplay:10.37,2013-03-03 01:51:00,
2013-03-02 19:56:00,16.9,10.3,30.17,North,0,0.0,0.0,75,0.00,CLR,OVC,0.00,WeatherDisplay:10.37,2013-03-03 01:56:00,
2013-03-02 20:01:00,16.7,10.1,30.17,North,0,0.0,0.0,75,0.00,CLR,OVC,0.00,WeatherDisplay:10.37,2013-03-03 02:01:00,
2013-03-02 20:06:00,16.5,10.0,30.16,North,0,0.0,0.0,75,0.00,CLR,OVC,0.00,WeatherDisplay:10.37,2013-03-03 02:06:00,
2013-03-02 20:11:00,16.3,9.8,30.16,North,0,0.0,0.0,75,0.00,CLR,OVC,0.00,WeatherDisplay:10.37,2013-03-03 02:11:00,
2013-03-02 20:16:00,16.0,9.5,30.16,North,0,0.0,0.0,75,0.00,CLR,OVC,0.00,WeatherDisplay:10.37,2013-03-03 02:16:00,
2013-03-02 20:21:00,15.6,9.1,30.16,North,0,0.0,0.0,75,0.00,CLR,OVC,0.00,WeatherDisplay:10.37,2013-03-03 02:21:00,
2013-03-02 20:26:00,15.4,8.9,30.16,North,0,0.0,0.0,75,0.00,CLR,OVC,0.00,WeatherDisplay:10.37,2013-03-03 02:26:00,
2013-03-02 20:31:00,15.4,9.2,30.16,North,0,0.0,0.0,76,0.00,CLR,OVC,0.00,WeatherDisplay:10.37,2013-03-03 02:31:00,
2013-03-02 20:36:00,15.3,9.0,30.17,North,0,0.0,0.0,76,0.00,CLR,OVC,0.00,WeatherDisplay:10.37,2013-03-03 02:36:00,
2013-03-02 20:41:00,15.1,8.9,30.17,North,0,0.0,0.0,76,0.00,CLR,OVC,0.00,WeatherDisplay:10.37,2013-03-03 02:41:00,
2013-03-02 20:46:00,15.3,9.0,30.16,North,0,0.0,0.0,76,0.00,CLR,OVC,0.00,WeatherDisplay:10.37,2013-03-03 02:46:00,
2013-03-02 20:51:00,15.4,9.2,30.17,North,0,0.0,0.0,76,0.00,CLR,OVC,0.00,WeatherDisplay:10.37,2013-03-03 02:51:00,
2013-03-02 20:56:00,15.1,8.9,30.17,North,0,0.0,0.0,76,0.00,CLR,OVC,0.00,WeatherDisplay:10.37,2013-03-03 02:56:00,
2013-03-02 21:01:00,14.7,8.5,30.17,North,0,0.0,0.0,76,0.00,CLR,OVC,0.00,WeatherDisplay:10.37,2013-03-03 03:01:00,
2013-03-02 21:07:00,15.6,9.4,30.17,North,0,0.0,0.0,76,0.00,CLR,OVC,0.00,WeatherDisplay:10.37,2013-03-03 03:07:00,
2013-03-02 21:12:00,16.3,9.8,30.17,North,0,0.0,0.0,75,0.00,CLR,OVC,0.00,WeatherDisplay:10.37,2013-03-03 03:12:00,
2013-03-02 21:17:00,16.9,10.0,30.17,North,0,0.0,0.0,74,0.00,CLR,OVC,0.00,WeatherDisplay:10.37,2013-03-03 03:17:00,
2013-03-02 21:22:00,17.2,10.4,30.17,North,0,0.0,0.0,74,0.00,CLR,OVC,0.00,WeatherDisplay:10.37,2013-03-03 03:22:00,
2013-03-02 21:27:00,17.2,10.4,30.17,North,0,0.0,0.0,74,0.00,CLR,OVC,0.00,WeatherDisplay:10.37,2013-03-03 03:27:00,
2013-03-02 21:32:00,16.9,10.0,30.16,North,0,0.0,0.0,74,0.00,CLR,OVC,0.00,WeatherDisplay:10.37,2013-03-03 03:32:00,
2013-03-02 21:37:00,16.5,9.7,30.16,North,0,0.0,0.0,74,0.00,CLR,OVC,0.00,WeatherDisplay:10.37,2013-03-03 03:37:00,
2013-03-02 21:42:00,16.2,9.3,30.16,North,0,0.0,0.0,74,0.00,CLR,OVC,0.00,WeatherDisplay:10.37,2013-03-03 03:42:00,
2013-03-02 21:47:00,16.2,9.3,30.17,North,0,0.0,0.0,74,0.00,CLR,OVC,0.00,WeatherDisplay:10.37,2013-03-03 03:47:00,
2013-03-02 21:52:00,15.8,9.0,30.16,North,0,0.0,0.0,74,0.00,CLR,OVC,0.00,WeatherDisplay:10.37,2013-03-03 03:52:00,
2013-03-02 21:57:00,15.6,8.8,30.16,North,0,0.0,0.0,74,0.00,CLR,OVC,0.00,WeatherDisplay:10.37,2013-03-03 03:57:00,
2013-03-02 22:02:00,15.4,8.6,30.16,North,0,0.0,0.0,74,0.00,CLR,OVC,0.00,WeatherDisplay:10.37,2013-03-03 04:02:00,
2013-03-02 22:07:00,15.4,8.6,30.16,North,0,0.0,0.0,74,0.00,CLR,OVC,0.00,WeatherDisplay:10.37,2013-03-03 04:07:00,
2013-03-02 22:12:00,15.4,8.6,30.16,North,0,0.0,0.0,74,0.00,CLR,OVC,0.00,WeatherDisplay:10.37,2013-03-03 04:12:00,
2013-03-02 22:17:00,15.4,8.9,30.16,North,0,0.0,0.0,75,0.00,CLR,OVC,0.00,WeatherDisplay:10.37,2013-03-03 04:17:00,
2013-03-02 22:22:00,15.3,8.8,30.16,North,0,0.0,0.0,75,0.00,CLR,OVC,0.00,WeatherDisplay:10.37,2013-03-03 04:22:00,
2013-03-02 22:27:00,14.5,8.1,30.15,North,0,0.0,0.0,75,0.00,CLR,OVC,0.00,WeatherDisplay:10.37,2013-03-03 04:27:00,
2013-03-02 22:32:00,14.4,7.9,30.15,North,0,0.0,0.0,75,0.00,CLR,OVC,0.00,WeatherDisplay:10.37,2013-03-03 04:32:00,
2013-03-02 22:37:00,14.0,7.5,30.15,North,0,0.0,0.0,75,0.00,CLR,OVC,0.00,WeatherDisplay:10.37,2013-03-03 04:37:00,
2013-03-02 22:42:00,14.0,7.8,30.15,North,0,0.0,0.0,76,0.00,CLR,OVC,0.00,WeatherDisplay:10.37,2013-03-03 04:42:00,
2013-03-02 22:47:00,14.0,7.8,30.15,North,0,0.0,0.0,76,0.00,CLR,OVC,0.00,WeatherDisplay:10.37,2013-03-03 04:47:00,
2013-03-02 22:52:00,13.8,7.7,30.14,North,0,0.0,0.0,76,0.00,CLR,OVC,0.00,WeatherDisplay:10.37,2013-03-03 04:52:00,
2013-03-02 22:57:00,13.6,7.5,30.15,North,0,0.0,0.0,76,0.00,CLR,OVC,0.00,WeatherDisplay:10.37,2013-03-03 04:57:00,
2013-03-02 23:00:00,13.6,7.5,30.15,North,0,0.0,0.0,76,0.00,CLR,OVC,0.00,WeatherDisplay:10.37,2013-03-03 05:00:00,
2013-03-02 23:01:00,13.6,7.5,30.15,North,0,0.0,0.0,76,0.00,CLR,OVC,0.00,WeatherDisplay:10.37,2013-03-03 05:01:00,
2013-03-02 23:06:00,13.5,7.3,30.14,North,0,0.0,0.0,76,0.00,CLR,OVC,0.00,WeatherDisplay:10.37,2013-03-03 05:06:00,
2013-03-02 23:11:00,13.6,7.5,30.15,North,0,0.0,0.0,76,0.00,CLR,OVC,0.00,WeatherDisplay:10.37,2013-03-03 05:11:00,
2013-03-02 23:16:00,13.8,7.7,30.14,North,0,0.0,0.0,76,0.00,CLR,OVC,0.00,WeatherDisplay:10.37,2013-03-03 05:16:00,
2013-03-02 23:21:00,14.0,7.8,30.14,North,0,0.0,0.0,76,0.00,CLR,OVC,0.00,WeatherDisplay:10.37,2013-03-03 05:21:00,
2013-03-02 23:26:00,14.4,8.2,30.14,North,0,0.0,0.0,76,0.00,CLR,OVC,0.00,WeatherDisplay:10.37,2013-03-03 05:26:00,
2013-03-02 23:31:00,14.7,8.5,30.13,North,0,0.0,0.0,76,0.00,CLR,OVC,0.00,WeatherDisplay:10.37,2013-03-03 05:31:00,
2013-03-02 23:36:00,14.7,8.5,30.13,North,0,0.0,0.0,76,0.00,CLR,OVC,0.00,WeatherDisplay:10.37,2013-03-03 05:36:00,
2013-03-02 23:41:00,14.7,8.5,30.13,North,0,0.0,0.0,76,0.00,CLR,OVC,0.00,WeatherDisplay:10.37,2013-03-03 05:41:00,
2013-03-02 23:46:00,14.4,8.2,30.13,North,0,0.0,0.0,76,0.00,CLR,OVC,0.00,WeatherDisplay:10.37,2013-03-03 05:46:00,
2013-03-02 23:51:00,14.4,8.2,30.13,North,0,0.0,0.0,76,0.00,CLR,OVC,0.00,WeatherDisplay:10.37,2013-03-03 05:51:00,
2013-03-02 23:57:00,14.5,8.4,30.13,North,0,0.0,0.0,76,0.00,CLR,OVC,0.00,WeatherDisplay:10.37,2013-03-03 05:57:00,